sensor_id;sensor_type;location;lat;lon;timestamp;P1;durP1;ratioP1;P2;durP2;ratioP2
11829;SDS011;5972;42.134;24.718;2023-08-21T00:01:26;9.15;;;5.70;;
11829;SDS011;5972;42.134;24.718;2023-08-21T00:03:53;6.28;;;5.30;;
11829;SDS011;5972;42.134;24.718;2023-08-21T00:06:20;12.23;;;6.00;;
11829;SDS011;5972;42.134;24.718;2023-08-21T00:08:46;7.63;;;5.63;;
11829;SDS011;5972;42.134;24.718;2023-08-21T00:11:13;8.55;;;5.55;;
11829;SDS011;5972;42.134;24.718;2023-08-21T00:13:40;8.25;;;5.47;;
11829;SDS011;5972;42.134;24.718;2023-08-21T00:16:11;8.23;;;5.82;;
11829;SDS011;5972;42.134;24.718;2023-08-21T00:18:37;7.38;;;5.28;;
11829;SDS011;5972;42.134;24.718;2023-08-21T00:21:04;9.10;;;5.78;;
11829;SDS011;5972;42.134;24.718;2023-08-21T00:23:31;10.10;;;6.22;;
11829;SDS011;5972;42.134;24.718;2023-08-21T00:25:58;9.38;;;5.90;;
11829;SDS011;5972;42.134;24.718;2023-08-21T00:28:25;6.75;;;5.68;;
11829;SDS011;5972;42.134;24.718;2023-08-21T00:30:59;7.18;;;5.90;;
11829;SDS011;5972;42.134;24.718;2023-08-21T00:33:28;6.82;;;5.60;;
11829;SDS011;5972;42.134;24.718;2023-08-21T00:35:55;9.73;;;6.10;;
11829;SDS011;5972;42.134;24.718;2023-08-21T00:38:22;7.18;;;5.85;;
11829;SDS011;5972;42.134;24.718;2023-08-21T00:40:48;12.32;;;5.78;;
11829;SDS011;5972;42.134;24.718;2023-08-21T00:43:15;9.15;;;5.50;;
11829;SDS011;5972;42.134;24.718;2023-08-21T00:45:42;11.18;;;5.70;;
11829;SDS011;5972;42.134;24.718;2023-08-21T00:48:10;7.03;;;5.50;;
11829;SDS011;5972;42.134;24.718;2023-08-21T00:50:39;6.45;;;5.78;;
11829;SDS011;5972;42.134;24.718;2023-08-21T00:53:07;11.35;;;5.65;;
11829;SDS011;5972;42.134;24.718;2023-08-21T00:55:34;11.70;;;6.07;;
11829;SDS011;5972;42.134;24.718;2023-08-21T00:58:02;6.05;;;5.35;;
11829;SDS011;5972;42.134;24.718;2023-08-21T01:00:35;8.75;;;5.82;;
11829;SDS011;5972;42.134;24.718;2023-08-21T01:03:12;6.65;;;5.43;;
11829;SDS011;5972;42.134;24.718;2023-08-21T01:05:40;7.28;;;5.68;;
11829;SDS011;5972;42.134;24.718;2023-08-21T01:08:09;8.80;;;5.63;;
11829;SDS011;5972;42.134;24.718;2023-08-21T01:10:43;6.35;;;5.32;;
11829;SDS011;5972;42.134;24.718;2023-08-21T01:13:19;5.97;;;5.18;;
11829;SDS011;5972;42.134;24.718;2023-08-21T01:15:53;9.27;;;5.30;;
11829;SDS011;5972;42.134;24.718;2023-08-21T01:18:22;5.43;;;4.82;;
11829;SDS011;5972;42.134;24.718;2023-08-21T01:20:51;5.47;;;4.82;;
11829;SDS011;5972;42.134;24.718;2023-08-21T01:23:32;10.45;;;5.60;;
11829;SDS011;5972;42.134;24.718;2023-08-21T01:26:00;10.82;;;5.25;;
11829;SDS011;5972;42.134;24.718;2023-08-21T01:28:26;6.03;;;5.35;;
11829;SDS011;5972;42.134;24.718;2023-08-21T01:30:56;8.75;;;5.07;;
11829;SDS011;5972;42.134;24.718;2023-08-21T01:33:29;6.55;;;5.00;;
11829;SDS011;5972;42.134;24.718;2023-08-21T01:35:59;7.03;;;4.93;;
11829;SDS011;5972;42.134;24.718;2023-08-21T01:38:29;8.90;;;5.10;;
11829;SDS011;5972;42.134;24.718;2023-08-21T01:40:57;8.63;;;5.20;;
11829;SDS011;5972;42.134;24.718;2023-08-21T01:43:24;5.55;;;5.05;;
11829;SDS011;5972;42.134;24.718;2023-08-21T01:45:51;8.13;;;4.80;;
11829;SDS011;5972;42.134;24.718;2023-08-21T01:48:18;6.03;;;5.15;;
11829;SDS011;5972;42.134;24.718;2023-08-21T01:50:44;7.75;;;5.15;;
11829;SDS011;5972;42.134;24.718;2023-08-21T01:53:11;6.72;;;5.03;;
11829;SDS011;5972;42.134;24.718;2023-08-21T01:55:38;8.07;;;5.32;;
11829;SDS011;5972;42.134;24.718;2023-08-21T01:58:06;7.15;;;4.80;;
11829;SDS011;5972;42.134;24.718;2023-08-21T02:00:33;5.88;;;5.20;;
11829;SDS011;5972;42.134;24.718;2023-08-21T02:02:59;7.15;;;5.50;;
11829;SDS011;5972;42.134;24.718;2023-08-21T02:05:26;9.07;;;5.50;;
11829;SDS011;5972;42.134;24.718;2023-08-21T02:07:53;5.78;;;4.90;;
11829;SDS011;5972;42.134;24.718;2023-08-21T02:10:20;8.60;;;5.75;;
11829;SDS011;5972;42.134;24.718;2023-08-21T02:12:47;11.15;;;5.43;;
11829;SDS011;5972;42.134;24.718;2023-08-21T02:15:16;8.68;;;5.70;;
11829;SDS011;5972;42.134;24.718;2023-08-21T02:17:43;7.38;;;5.40;;
11829;SDS011;5972;42.134;24.718;2023-08-21T02:20:10;8.70;;;5.38;;
11829;SDS011;5972;42.134;24.718;2023-08-21T02:22:37;7.95;;;5.25;;
11829;SDS011;5972;42.134;24.718;2023-08-21T02:25:04;11.50;;;5.40;;
11829;SDS011;5972;42.134;24.718;2023-08-21T02:27:31;6.20;;;5.60;;
11829;SDS011;5972;42.134;24.718;2023-08-21T02:29:58;5.95;;;5.13;;
11829;SDS011;5972;42.134;24.718;2023-08-21T02:32:26;6.60;;;5.47;;
11829;SDS011;5972;42.134;24.718;2023-08-21T02:34:52;6.25;;;5.40;;
11829;SDS011;5972;42.134;24.718;2023-08-21T02:37:19;7.22;;;5.10;;
11829;SDS011;5972;42.134;24.718;2023-08-21T02:39:46;10.38;;;5.32;;
11829;SDS011;5972;42.134;24.718;2023-08-21T02:42:13;9.38;;;5.15;;
11829;SDS011;5972;42.134;24.718;2023-08-21T02:44:40;7.30;;;5.65;;
11829;SDS011;5972;42.134;24.718;2023-08-21T02:47:06;7.20;;;5.25;;
11829;SDS011;5972;42.134;24.718;2023-08-21T02:49:34;8.85;;;5.90;;
11829;SDS011;5972;42.134;24.718;2023-08-21T02:52:01;6.55;;;5.30;;
11829;SDS011;5972;42.134;24.718;2023-08-21T02:54:28;9.35;;;5.28;;
11829;SDS011;5972;42.134;24.718;2023-08-21T02:56:54;6.35;;;5.25;;
11829;SDS011;5972;42.134;24.718;2023-08-21T02:59:21;7.88;;;5.57;;
11829;SDS011;5972;42.134;24.718;2023-08-21T03:01:48;11.25;;;5.47;;
11829;SDS011;5972;42.134;24.718;2023-08-21T03:04:14;11.65;;;5.68;;
11829;SDS011;5972;42.134;24.718;2023-08-21T03:06:43;6.30;;;5.30;;
11829;SDS011;5972;42.134;24.718;2023-08-21T03:09:09;7.65;;;5.55;;
11829;SDS011;5972;42.134;24.718;2023-08-21T03:11:36;6.45;;;5.63;;
11829;SDS011;5972;42.134;24.718;2023-08-21T03:14:03;6.65;;;5.75;;
11829;SDS011;5972;42.134;24.718;2023-08-21T03:16:29;8.18;;;5.22;;
11829;SDS011;5972;42.134;24.718;2023-08-21T03:18:57;5.68;;;4.93;;
11829;SDS011;5972;42.134;24.718;2023-08-21T03:21:24;5.95;;;4.82;;
11829;SDS011;5972;42.134;24.718;2023-08-21T03:23:54;9.48;;;4.88;;
11829;SDS011;5972;42.134;24.718;2023-08-21T03:26:22;8.52;;;5.47;;
11829;SDS011;5972;42.134;24.718;2023-08-21T03:28:49;8.93;;;5.85;;
11829;SDS011;5972;42.134;24.718;2023-08-21T03:31:16;6.07;;;5.35;;
11829;SDS011;5972;42.134;24.718;2023-08-21T03:33:43;8.48;;;5.03;;
11829;SDS011;5972;42.134;24.718;2023-08-21T03:36:10;8.88;;;5.68;;
11829;SDS011;5972;42.134;24.718;2023-08-21T03:38:36;8.38;;;5.50;;
11829;SDS011;5972;42.134;24.718;2023-08-21T03:41:05;6.18;;;5.53;;
11829;SDS011;5972;42.134;24.718;2023-08-21T03:43:31;9.55;;;6.10;;
11829;SDS011;5972;42.134;24.718;2023-08-21T03:45:58;10.20;;;5.43;;
11829;SDS011;5972;42.134;24.718;2023-08-21T03:48:25;13.07;;;6.57;;
11829;SDS011;5972;42.134;24.718;2023-08-21T03:50:51;11.27;;;5.68;;
11829;SDS011;5972;42.134;24.718;2023-08-21T03:53:18;10.27;;;5.82;;
11829;SDS011;5972;42.134;24.718;2023-08-21T03:55:45;11.75;;;5.70;;
11829;SDS011;5972;42.134;24.718;2023-08-21T03:58:13;9.23;;;5.53;;
11829;SDS011;5972;42.134;24.718;2023-08-21T04:00:40;10.75;;;5.68;;
11829;SDS011;5972;42.134;24.718;2023-08-21T04:03:06;9.80;;;5.60;;
11829;SDS011;5972;42.134;24.718;2023-08-21T04:05:33;9.20;;;5.38;;
11829;SDS011;5972;42.134;24.718;2023-08-21T04:08:00;5.65;;;5.15;;
11829;SDS011;5972;42.134;24.718;2023-08-21T04:10:27;7.65;;;5.22;;
11829;SDS011;5972;42.134;24.718;2023-08-21T04:12:53;7.82;;;5.20;;
11829;SDS011;5972;42.134;24.718;2023-08-21T04:15:21;10.18;;;5.15;;
11829;SDS011;5972;42.134;24.718;2023-08-21T04:17:48;10.15;;;5.70;;
11829;SDS011;5972;42.134;24.718;2023-08-21T04:20:15;8.55;;;5.93;;
11829;SDS011;5972;42.134;24.718;2023-08-21T04:22:41;6.53;;;5.63;;
11829;SDS011;5972;42.134;24.718;2023-08-21T04:25:08;9.82;;;5.30;;
11829;SDS011;5972;42.134;24.718;2023-08-21T04:27:36;8.20;;;5.60;;
11829;SDS011;5972;42.134;24.718;2023-08-21T04:30:03;13.07;;;5.90;;
11829;SDS011;5972;42.134;24.718;2023-08-21T04:32:32;8.70;;;5.78;;
11829;SDS011;5972;42.134;24.718;2023-08-21T04:34:59;11.77;;;5.82;;
11829;SDS011;5972;42.134;24.718;2023-08-21T04:37:26;8.30;;;5.93;;
11829;SDS011;5972;42.134;24.718;2023-08-21T04:39:53;6.72;;;5.10;;
11829;SDS011;5972;42.134;24.718;2023-08-21T04:42:21;10.98;;;5.65;;
11829;SDS011;5972;42.134;24.718;2023-08-21T04:44:48;12.65;;;6.03;;
11829;SDS011;5972;42.134;24.718;2023-08-21T04:47:21;12.13;;;5.43;;
11829;SDS011;5972;42.134;24.718;2023-08-21T04:49:50;6.38;;;5.10;;
11829;SDS011;5972;42.134;24.718;2023-08-21T04:52:17;13.45;;;5.20;;
11829;SDS011;5972;42.134;24.718;2023-08-21T04:54:44;7.55;;;5.47;;
11829;SDS011;5972;42.134;24.718;2023-08-21T04:57:11;10.30;;;5.30;;
11829;SDS011;5972;42.134;24.718;2023-08-21T04:59:38;10.73;;;5.45;;
11829;SDS011;5972;42.134;24.718;2023-08-21T05:02:04;12.10;;;5.72;;
11829;SDS011;5972;42.134;24.718;2023-08-21T05:04:32;12.40;;;5.53;;
11829;SDS011;5972;42.134;24.718;2023-08-21T05:07:00;8.57;;;6.38;;
11829;SDS011;5972;42.134;24.718;2023-08-21T05:09:27;12.02;;;6.75;;
11829;SDS011;5972;42.134;24.718;2023-08-21T05:11:53;15.07;;;7.03;;
11829;SDS011;5972;42.134;24.718;2023-08-21T05:14:20;14.93;;;6.80;;
11829;SDS011;5972;42.134;24.718;2023-08-21T05:16:48;14.93;;;6.35;;
11829;SDS011;5972;42.134;24.718;2023-08-21T05:19:15;10.40;;;6.10;;
11829;SDS011;5972;42.134;24.718;2023-08-21T05:21:42;11.57;;;6.00;;
11829;SDS011;5972;42.134;24.718;2023-08-21T05:24:10;14.02;;;5.10;;
11829;SDS011;5972;42.134;24.718;2023-08-21T05:26:37;8.50;;;5.10;;
11829;SDS011;5972;42.134;24.718;2023-08-21T05:29:04;9.38;;;5.68;;
11829;SDS011;5972;42.134;24.718;2023-08-21T05:31:31;7.85;;;5.25;;
11829;SDS011;5972;42.134;24.718;2023-08-21T05:34:01;9.55;;;5.20;;
11829;SDS011;5972;42.134;24.718;2023-08-21T05:36:28;9.68;;;5.15;;
11829;SDS011;5972;42.134;24.718;2023-08-21T05:38:55;9.88;;;5.00;;
11829;SDS011;5972;42.134;24.718;2023-08-21T05:41:24;12.15;;;5.60;;
11829;SDS011;5972;42.134;24.718;2023-08-21T05:43:50;13.20;;;5.60;;
11829;SDS011;5972;42.134;24.718;2023-08-21T05:46:17;6.47;;;5.00;;
11829;SDS011;5972;42.134;24.718;2023-08-21T05:48:44;8.95;;;4.90;;
11829;SDS011;5972;42.134;24.718;2023-08-21T05:51:11;7.65;;;4.95;;
11829;SDS011;5972;42.134;24.718;2023-08-21T05:53:38;16.38;;;4.70;;
11829;SDS011;5972;42.134;24.718;2023-08-21T05:56:05;11.05;;;4.72;;
11829;SDS011;5972;42.134;24.718;2023-08-21T05:58:33;13.75;;;5.18;;
11829;SDS011;5972;42.134;24.718;2023-08-21T06:00:59;9.57;;;4.72;;
11829;SDS011;5972;42.134;24.718;2023-08-21T06:03:26;12.52;;;5.18;;
11829;SDS011;5972;42.134;24.718;2023-08-21T06:05:53;12.07;;;4.68;;
11829;SDS011;5972;42.134;24.718;2023-08-21T06:08:20;14.60;;;4.82;;
11829;SDS011;5972;42.134;24.718;2023-08-21T06:10:50;9.88;;;4.60;;
11829;SDS011;5972;42.134;24.718;2023-08-21T06:13:17;8.15;;;4.72;;
11829;SDS011;5972;42.134;24.718;2023-08-21T06:15:48;10.73;;;4.60;;
11829;SDS011;5972;42.134;24.718;2023-08-21T06:18:15;14.05;;;4.93;;
11829;SDS011;5972;42.134;24.718;2023-08-21T06:20:42;9.63;;;4.38;;
11829;SDS011;5972;42.134;24.718;2023-08-21T06:23:10;12.30;;;4.47;;
11829;SDS011;5972;42.134;24.718;2023-08-21T06:25:37;10.27;;;4.70;;
11829;SDS011;5972;42.134;24.718;2023-08-21T06:28:04;8.95;;;4.38;;
11829;SDS011;5972;42.134;24.718;2023-08-21T06:30:31;11.48;;;4.88;;
11829;SDS011;5972;42.134;24.718;2023-08-21T06:32:59;11.40;;;4.32;;
11829;SDS011;5972;42.134;24.718;2023-08-21T06:35:26;10.85;;;4.00;;
11829;SDS011;5972;42.134;24.718;2023-08-21T06:37:53;7.82;;;4.30;;
11829;SDS011;5972;42.134;24.718;2023-08-21T06:40:20;5.78;;;3.90;;
11829;SDS011;5972;42.134;24.718;2023-08-21T06:42:47;4.78;;;3.95;;
11829;SDS011;5972;42.134;24.718;2023-08-21T06:45:15;10.32;;;4.00;;
11829;SDS011;5972;42.134;24.718;2023-08-21T06:47:42;7.25;;;4.03;;
11829;SDS011;5972;42.134;24.718;2023-08-21T06:50:11;11.23;;;3.90;;
11829;SDS011;5972;42.134;24.718;2023-08-21T06:52:38;5.88;;;3.92;;
11829;SDS011;5972;42.134;24.718;2023-08-21T06:55:06;10.18;;;4.18;;
11829;SDS011;5972;42.134;24.718;2023-08-21T06:57:33;8.98;;;4.65;;
11829;SDS011;5972;42.134;24.718;2023-08-21T07:00:00;5.50;;;4.20;;
11829;SDS011;5972;42.134;24.718;2023-08-21T07:02:28;8.00;;;4.18;;
11829;SDS011;5972;42.134;24.718;2023-08-21T07:04:55;5.57;;;4.15;;
11829;SDS011;5972;42.134;24.718;2023-08-21T07:07:23;13.70;;;4.75;;
11829;SDS011;5972;42.134;24.718;2023-08-21T07:09:50;8.70;;;4.00;;
11829;SDS011;5972;42.134;24.718;2023-08-21T07:12:17;8.80;;;4.15;;
11829;SDS011;5972;42.134;24.718;2023-08-21T07:14:44;6.63;;;4.75;;
11829;SDS011;5972;42.134;24.718;2023-08-21T07:17:10;7.90;;;3.88;;
11829;SDS011;5972;42.134;24.718;2023-08-21T07:19:37;8.90;;;4.28;;
11829;SDS011;5972;42.134;24.718;2023-08-21T07:22:04;12.13;;;4.50;;
11829;SDS011;5972;42.134;24.718;2023-08-21T07:24:32;13.55;;;4.30;;
11829;SDS011;5972;42.134;24.718;2023-08-21T07:26:58;10.40;;;4.10;;
11829;SDS011;5972;42.134;24.718;2023-08-21T07:29:25;7.90;;;4.57;;
11829;SDS011;5972;42.134;24.718;2023-08-21T07:31:52;10.07;;;4.25;;
11829;SDS011;5972;42.134;24.718;2023-08-21T07:34:18;6.20;;;4.22;;
11829;SDS011;5972;42.134;24.718;2023-08-21T07:36:45;9.18;;;4.60;;
11829;SDS011;5972;42.134;24.718;2023-08-21T07:39:12;11.35;;;4.07;;
11829;SDS011;5972;42.134;24.718;2023-08-21T07:41:40;10.07;;;4.43;;
11829;SDS011;5972;42.134;24.718;2023-08-21T07:44:07;7.60;;;4.28;;
11829;SDS011;5972;42.134;24.718;2023-08-21T07:46:33;8.90;;;4.40;;
11829;SDS011;5972;42.134;24.718;2023-08-21T07:49:00;9.00;;;4.30;;
11829;SDS011;5972;42.134;24.718;2023-08-21T07:51:27;8.40;;;4.25;;
11829;SDS011;5972;42.134;24.718;2023-08-21T07:53:53;6.53;;;4.30;;
11829;SDS011;5972;42.134;24.718;2023-08-21T07:56:20;9.10;;;4.20;;
11829;SDS011;5972;42.134;24.718;2023-08-21T07:58:48;7.45;;;4.22;;
11829;SDS011;5972;42.134;24.718;2023-08-21T08:01:15;7.95;;;3.65;;
11829;SDS011;5972;42.134;24.718;2023-08-21T08:03:42;8.88;;;4.00;;
11829;SDS011;5972;42.134;24.718;2023-08-21T08:06:08;12.13;;;3.90;;
11829;SDS011;5972;42.134;24.718;2023-08-21T08:08:35;8.57;;;3.88;;
11829;SDS011;5972;42.134;24.718;2023-08-21T08:11:02;10.27;;;3.97;;
11829;SDS011;5972;42.134;24.718;2023-08-21T08:13:29;6.97;;;3.60;;
11829;SDS011;5972;42.134;24.718;2023-08-21T08:15:57;9.32;;;3.92;;
11829;SDS011;5972;42.134;24.718;2023-08-21T08:18:24;8.10;;;3.50;;
11829;SDS011;5972;42.134;24.718;2023-08-21T08:20:50;14.15;;;3.97;;
11829;SDS011;5972;42.134;24.718;2023-08-21T08:23:18;9.65;;;3.80;;
11829;SDS011;5972;42.134;24.718;2023-08-21T08:25:45;6.68;;;3.53;;
11829;SDS011;5972;42.134;24.718;2023-08-21T08:28:13;10.18;;;3.80;;
11829;SDS011;5972;42.134;24.718;2023-08-21T08:30:40;9.35;;;3.67;;
11829;SDS011;5972;42.134;24.718;2023-08-21T08:33:08;8.95;;;3.33;;
11829;SDS011;5972;42.134;24.718;2023-08-21T08:35:35;8.45;;;3.60;;
11829;SDS011;5972;42.134;24.718;2023-08-21T08:38:01;12.05;;;4.00;;
11829;SDS011;5972;42.134;24.718;2023-08-21T08:40:28;10.15;;;3.70;;
11829;SDS011;5972;42.134;24.718;2023-08-21T08:42:55;5.13;;;3.20;;
11829;SDS011;5972;42.134;24.718;2023-08-21T08:45:23;10.65;;;3.90;;
11829;SDS011;5972;42.134;24.718;2023-08-21T08:47:55;7.53;;;3.75;;
11829;SDS011;5972;42.134;24.718;2023-08-21T08:50:26;11.93;;;3.75;;
11829;SDS011;5972;42.134;24.718;2023-08-21T08:52:55;6.43;;;3.65;;
11829;SDS011;5972;42.134;24.718;2023-08-21T08:55:23;6.65;;;3.78;;
11829;SDS011;5972;42.134;24.718;2023-08-21T08:57:51;7.13;;;3.60;;
11829;SDS011;5972;42.134;24.718;2023-08-21T09:00:18;5.85;;;4.07;;
11829;SDS011;5972;42.134;24.718;2023-08-21T09:02:45;8.75;;;3.63;;
11829;SDS011;5972;42.134;24.718;2023-08-21T09:05:11;6.70;;;3.60;;
11829;SDS011;5972;42.134;24.718;2023-08-21T09:07:40;4.43;;;3.63;;
11829;SDS011;5972;42.134;24.718;2023-08-21T09:10:12;8.50;;;3.90;;
11829;SDS011;5972;42.134;24.718;2023-08-21T09:12:40;7.75;;;3.80;;
11829;SDS011;5972;42.134;24.718;2023-08-21T09:15:07;8.25;;;3.97;;
11829;SDS011;5972;42.134;24.718;2023-08-21T09:17:35;6.25;;;3.50;;
11829;SDS011;5972;42.134;24.718;2023-08-21T09:20:05;8.15;;;3.78;;
11829;SDS011;5972;42.134;24.718;2023-08-21T09:22:33;6.38;;;3.40;;
11829;SDS011;5972;42.134;24.718;2023-08-21T09:25:01;6.85;;;3.78;;
11829;SDS011;5972;42.134;24.718;2023-08-21T09:27:31;7.47;;;4.00;;
11829;SDS011;5972;42.134;24.718;2023-08-21T09:29:59;9.18;;;3.92;;
11829;SDS011;5972;42.134;24.718;2023-08-21T09:32:26;5.95;;;3.80;;
11829;SDS011;5972;42.134;24.718;2023-08-21T09:34:53;7.20;;;3.65;;
11829;SDS011;5972;42.134;24.718;2023-08-21T09:37:20;5.15;;;3.65;;
11829;SDS011;5972;42.134;24.718;2023-08-21T09:39:46;9.63;;;3.50;;
11829;SDS011;5972;42.134;24.718;2023-08-21T09:42:14;6.40;;;3.70;;
11829;SDS011;5972;42.134;24.718;2023-08-21T09:44:44;7.25;;;3.92;;
11829;SDS011;5972;42.134;24.718;2023-08-21T09:47:11;4.30;;;3.90;;
11829;SDS011;5972;42.134;24.718;2023-08-21T09:49:38;6.40;;;3.60;;
11829;SDS011;5972;42.134;24.718;2023-08-21T09:52:06;9.27;;;3.88;;
11829;SDS011;5972;42.134;24.718;2023-08-21T09:54:35;8.93;;;4.00;;
11829;SDS011;5972;42.134;24.718;2023-08-21T09:57:03;5.53;;;3.47;;
11829;SDS011;5972;42.134;24.718;2023-08-21T09:59:33;6.85;;;3.80;;
11829;SDS011;5972;42.134;24.718;2023-08-21T10:02:06;3.72;;;3.42;;
11829;SDS011;5972;42.134;24.718;2023-08-21T10:04:35;5.28;;;3.45;;
11829;SDS011;5972;42.134;24.718;2023-08-21T10:07:03;4.82;;;3.65;;
11829;SDS011;5972;42.134;24.718;2023-08-21T10:09:33;5.13;;;3.55;;
11829;SDS011;5972;42.134;24.718;2023-08-21T10:12:01;4.03;;;3.67;;
11829;SDS011;5972;42.134;24.718;2023-08-21T10:14:29;5.20;;;3.55;;
11829;SDS011;5972;42.134;24.718;2023-08-21T10:16:57;8.88;;;3.70;;
11829;SDS011;5972;42.134;24.718;2023-08-21T10:19:24;6.68;;;3.70;;
11829;SDS011;5972;42.134;24.718;2023-08-21T10:21:57;6.18;;;3.70;;
11829;SDS011;5972;42.134;24.718;2023-08-21T10:24:27;5.63;;;3.35;;
11829;SDS011;5972;42.134;24.718;2023-08-21T10:26:59;6.70;;;3.35;;
11829;SDS011;5972;42.134;24.718;2023-08-21T10:29:26;5.47;;;3.58;;
11829;SDS011;5972;42.134;24.718;2023-08-21T10:32:01;5.53;;;3.42;;
11829;SDS011;5972;42.134;24.718;2023-08-21T10:34:32;7.82;;;3.60;;
11829;SDS011;5972;42.134;24.718;2023-08-21T10:37:04;4.63;;;3.20;;
11829;SDS011;5972;42.134;24.718;2023-08-21T10:39:32;5.88;;;3.38;;
11829;SDS011;5972;42.134;24.718;2023-08-21T10:42:03;4.15;;;3.38;;
11829;SDS011;5972;42.134;24.718;2023-08-21T10:47:19;7.68;;;3.50;;
11829;SDS011;5972;42.134;24.718;2023-08-21T10:49:49;4.32;;;3.33;;
11829;SDS011;5972;42.134;24.718;2023-08-21T10:52:20;6.45;;;3.70;;
11829;SDS011;5972;42.134;24.718;2023-08-21T10:54:49;4.47;;;3.35;;
11829;SDS011;5972;42.134;24.718;2023-08-21T10:57:17;4.82;;;3.60;;
11829;SDS011;5972;42.134;24.718;2023-08-21T10:59:50;4.00;;;3.50;;
11829;SDS011;5972;42.134;24.718;2023-08-21T11:02:20;9.93;;;3.75;;
11829;SDS011;5972;42.134;24.718;2023-08-21T11:04:47;5.93;;;3.58;;
11829;SDS011;5972;42.134;24.718;2023-08-21T11:07:15;4.03;;;3.20;;
11829;SDS011;5972;42.134;24.718;2023-08-21T11:09:42;10.07;;;3.63;;
11829;SDS011;5972;42.134;24.718;2023-08-21T11:12:09;9.50;;;3.70;;
11829;SDS011;5972;42.134;24.718;2023-08-21T11:14:37;8.95;;;3.67;;
11829;SDS011;5972;42.134;24.718;2023-08-21T11:17:05;5.28;;;3.60;;
11829;SDS011;5972;42.134;24.718;2023-08-21T11:19:34;4.00;;;3.45;;
11829;SDS011;5972;42.134;24.718;2023-08-21T11:22:01;5.05;;;3.33;;
11829;SDS011;5972;42.134;24.718;2023-08-21T11:24:31;5.45;;;3.17;;
11829;SDS011;5972;42.134;24.718;2023-08-21T11:27:09;4.35;;;3.42;;
11829;SDS011;5972;42.134;24.718;2023-08-21T11:29:37;8.95;;;3.60;;
11829;SDS011;5972;42.134;24.718;2023-08-21T11:32:07;5.22;;;3.80;;
11829;SDS011;5972;42.134;24.718;2023-08-21T11:34:37;5.28;;;3.35;;
11829;SDS011;5972;42.134;24.718;2023-08-21T11:37:04;5.75;;;3.50;;
11829;SDS011;5972;42.134;24.718;2023-08-21T11:39:44;8.35;;;3.67;;
11829;SDS011;5972;42.134;24.718;2023-08-21T11:42:12;6.25;;;3.13;;
11829;SDS011;5972;42.134;24.718;2023-08-21T11:44:40;9.40;;;3.58;;
11829;SDS011;5972;42.134;24.718;2023-08-21T11:47:11;3.90;;;3.40;;
11829;SDS011;5972;42.134;24.718;2023-08-21T11:49:41;10.10;;;3.58;;
11829;SDS011;5972;42.134;24.718;2023-08-21T11:52:08;7.47;;;3.40;;
11829;SDS011;5972;42.134;24.718;2023-08-21T11:54:36;5.20;;;3.30;;
11829;SDS011;5972;42.134;24.718;2023-08-21T11:57:05;4.63;;;3.65;;
11829;SDS011;5972;42.134;24.718;2023-08-21T11:59:33;6.82;;;3.22;;
11829;SDS011;5972;42.134;24.718;2023-08-21T12:02:00;8.55;;;3.60;;
11829;SDS011;5972;42.134;24.718;2023-08-21T12:04:27;6.18;;;3.33;;
11829;SDS011;5972;42.134;24.718;2023-08-21T12:06:55;3.97;;;3.40;;
11829;SDS011;5972;42.134;24.718;2023-08-21T12:09:22;5.55;;;3.40;;
11829;SDS011;5972;42.134;24.718;2023-08-21T12:11:49;10.05;;;3.63;;
11829;SDS011;5972;42.134;24.718;2023-08-21T12:14:15;4.82;;;3.53;;
11829;SDS011;5972;42.134;24.718;2023-08-21T12:16:42;6.68;;;3.65;;
11829;SDS011;5972;42.134;24.718;2023-08-21T12:19:10;3.72;;;3.40;;
11829;SDS011;5972;42.134;24.718;2023-08-21T12:21:37;5.75;;;3.70;;
11829;SDS011;5972;42.134;24.718;2023-08-21T12:24:06;4.88;;;3.80;;
11829;SDS011;5972;42.134;24.718;2023-08-21T12:26:33;8.30;;;3.53;;
11829;SDS011;5972;42.134;24.718;2023-08-21T12:29:00;8.18;;;3.60;;
11829;SDS011;5972;42.134;24.718;2023-08-21T12:31:27;4.43;;;3.25;;
11829;SDS011;5972;42.134;24.718;2023-08-21T12:33:55;9.93;;;3.42;;
11829;SDS011;5972;42.134;24.718;2023-08-21T12:36:22;6.90;;;3.70;;
11829;SDS011;5972;42.134;24.718;2023-08-21T12:38:49;5.28;;;3.35;;
11829;SDS011;5972;42.134;24.718;2023-08-21T12:41:17;4.35;;;3.95;;
11829;SDS011;5972;42.134;24.718;2023-08-21T12:43:44;6.38;;;3.70;;
11829;SDS011;5972;42.134;24.718;2023-08-21T12:46:11;7.60;;;3.95;;
11829;SDS011;5972;42.134;24.718;2023-08-21T12:48:38;6.47;;;3.80;;
11829;SDS011;5972;42.134;24.718;2023-08-21T12:51:05;7.30;;;3.70;;
11829;SDS011;5972;42.134;24.718;2023-08-21T12:53:34;6.82;;;3.88;;
11829;SDS011;5972;42.134;24.718;2023-08-21T12:56:01;8.40;;;3.72;;
11829;SDS011;5972;42.134;24.718;2023-08-21T12:58:30;6.00;;;3.90;;
11829;SDS011;5972;42.134;24.718;2023-08-21T13:00:58;4.15;;;3.75;;
11829;SDS011;5972;42.134;24.718;2023-08-21T13:03:28;7.43;;;3.67;;
11829;SDS011;5972;42.134;24.718;2023-08-21T13:05:55;11.75;;;3.97;;
11829;SDS011;5972;42.134;24.718;2023-08-21T13:08:22;5.60;;;4.10;;
11829;SDS011;5972;42.134;24.718;2023-08-21T13:10:49;6.78;;;3.80;;
11829;SDS011;5972;42.134;24.718;2023-08-21T13:13:15;6.18;;;3.38;;
11829;SDS011;5972;42.134;24.718;2023-08-21T13:15:44;6.22;;;3.25;;
11829;SDS011;5972;42.134;24.718;2023-08-21T13:18:11;8.00;;;3.70;;
11829;SDS011;5972;42.134;24.718;2023-08-21T13:20:39;6.63;;;3.40;;
11829;SDS011;5972;42.134;24.718;2023-08-21T13:23:06;8.32;;;3.30;;
11829;SDS011;5972;42.134;24.718;2023-08-21T13:25:33;9.07;;;3.45;;
11829;SDS011;5972;42.134;24.718;2023-08-21T13:28:00;7.97;;;3.15;;
11829;SDS011;5972;42.134;24.718;2023-08-21T13:30:28;10.40;;;3.38;;
11829;SDS011;5972;42.134;24.718;2023-08-21T13:32:57;5.45;;;3.28;;
11829;SDS011;5972;42.134;24.718;2023-08-21T13:35:24;6.22;;;3.60;;
11829;SDS011;5972;42.134;24.718;2023-08-21T13:37:51;8.52;;;3.72;;
11829;SDS011;5972;42.134;24.718;2023-08-21T13:40:18;6.32;;;3.70;;
11829;SDS011;5972;42.134;24.718;2023-08-21T13:42:46;5.88;;;4.07;;
11829;SDS011;5972;42.134;24.718;2023-08-21T13:45:15;7.75;;;3.70;;
11829;SDS011;5972;42.134;24.718;2023-08-21T13:47:43;12.77;;;4.35;;
11829;SDS011;5972;42.134;24.718;2023-08-21T13:50:12;6.30;;;4.35;;
11829;SDS011;5972;42.134;24.718;2023-08-21T13:52:43;7.95;;;4.15;;
11829;SDS011;5972;42.134;24.718;2023-08-21T13:55:10;6.63;;;4.70;;
11829;SDS011;5972;42.134;24.718;2023-08-21T13:57:37;5.93;;;4.90;;
11829;SDS011;5972;42.134;24.718;2023-08-21T14:00:05;12.30;;;5.15;;
11829;SDS011;5972;42.134;24.718;2023-08-21T14:02:37;9.65;;;4.82;;
11829;SDS011;5972;42.134;24.718;2023-08-21T14:05:05;8.52;;;5.03;;
11829;SDS011;5972;42.134;24.718;2023-08-21T14:07:34;10.68;;;4.70;;
11829;SDS011;5972;42.134;24.718;2023-08-21T14:10:01;8.05;;;4.97;;
11829;SDS011;5972;42.134;24.718;2023-08-21T14:12:29;4.95;;;4.45;;
11829;SDS011;5972;42.134;24.718;2023-08-21T14:14:56;8.40;;;4.78;;
11829;SDS011;5972;42.134;24.718;2023-08-21T14:17:24;6.60;;;4.28;;
11829;SDS011;5972;42.134;24.718;2023-08-21T14:19:51;7.50;;;4.88;;
11829;SDS011;5972;42.134;24.718;2023-08-21T14:22:18;6.82;;;4.47;;
11829;SDS011;5972;42.134;24.718;2023-08-21T14:24:46;6.20;;;4.10;;
11829;SDS011;5972;42.134;24.718;2023-08-21T14:27:13;6.80;;;4.32;;
11829;SDS011;5972;42.134;24.718;2023-08-21T14:29:41;7.22;;;4.25;;
11829;SDS011;5972;42.134;24.718;2023-08-21T14:32:08;5.03;;;3.90;;
11829;SDS011;5972;42.134;24.718;2023-08-21T14:34:36;4.75;;;4.10;;
11829;SDS011;5972;42.134;24.718;2023-08-21T14:37:03;6.35;;;4.32;;
11829;SDS011;5972;42.134;24.718;2023-08-21T14:39:30;9.20;;;4.20;;
11829;SDS011;5972;42.134;24.718;2023-08-21T14:41:58;12.32;;;4.13;;
11829;SDS011;5972;42.134;24.718;2023-08-21T14:44:26;9.02;;;4.13;;
11829;SDS011;5972;42.134;24.718;2023-08-21T14:46:53;4.57;;;3.95;;
11829;SDS011;5972;42.134;24.718;2023-08-21T14:49:23;7.00;;;4.28;;
11829;SDS011;5972;42.134;24.718;2023-08-21T14:51:50;4.93;;;4.15;;